Time;durP1;ratioP1;P1;durP2;ratioP2;P2;SDS_P1;SDS_P2;PMS_P1;PMS_P2;Temp;Humidity;BMP_temperature;BMP_pressure;BME280_temperature;BME280_humidity;BME280_pressure;Samples;Min_cycle;Max_cycle;Signal;HPM_P1;HPM_P2
2022/04/30 00:00:48;;;;;;;27.40;17.27;;;;;;;10.91;61.19;102122.44;4955603;28;20530;-67
2022/04/30 00:03:15;;;;;;;30.92;17.35;;;;;;;11.07;60.69;102137.03;4941241;29;20047;-66
2022/04/30 00:05:43;;;;;;;27.25;17.15;;;;;;;10.86;61.20;102125.22;4940784;29;20383;-67
2022/04/30 00:08:10;;;;;;;30.58;17.23;;;;;;;10.98;61.14;102128.50;4951105;28;20062;-67
2022/04/30 00:10:38;;;;;;;25.15;16.80;;;;;;;10.83;61.35;102122.22;4959564;28;20066;-67
2022/04/30 00:13:06;;;;;;;29.88;18.35;;;;;;;10.34;62.46;102116.56;4939063;29;20047;-67
2022/04/30 00:15:34;;;;;;;29.92;18.27;;;;;;;10.55;62.40;102115.41;4958868;29;20482;-67
2022/04/30 00:18:02;;;;;;;27.52;17.42;;;;;;;10.39;62.52;102111.03;4967128;28;20406;-67
2022/04/30 00:20:29;;;;;;;30.77;19.25;;;;;;;10.41;62.66;102117.09;4935758;29;20067;-66
2022/04/30 00:22:56;;;;;;;34.40;18.55;;;;;;;10.39;62.86;102127.56;4952943;29;20390;-67
2022/04/30 00:25:24;;;;;;;32.72;18.67;;;;;;;10.15;64.00;102132.00;4958963;28;20062;-67
2022/04/30 00:27:51;;;;;;;27.52;18.67;;;;;;;10.19;64.03;102125.69;4956525;29;20062;-67
2022/04/30 00:30:20;;;;;;;28.05;18.38;;;;;;;10.48;63.53;102134.16;4959617;28;20056;-66
2022/04/30 00:32:48;;;;;;;31.00;19.98;;;;;;;10.54;62.79;102135.81;4954420;29;20051;-67
2022/04/30 00:35:15;;;;;;;32.33;20.05;;;;;;;10.19;64.61;102139.44;4957152;29;20051;-67
2022/04/30 00:37:43;;;;;;;30.70;20.35;;;;;;;10.19;65.17;102135.84;4956184;29;20062;-67
2022/04/30 00:40:10;;;;;;;34.60;21.45;;;;;;;10.06;66.09;102136.38;4955103;29;20050;-67
2022/04/30 00:42:38;;;;;;;38.22;21.30;;;;;;;9.94;66.10;102136.66;4958241;29;20091;-67
2022/04/30 00:45:07;;;;;;;28.23;20.47;;;;;;;10.14;65.85;102133.94;4958381;29;20066;-67
2022/04/30 00:47:34;;;;;;;34.10;20.70;;;;;;;10.17;65.37;102133.38;4956149;29;20072;-66
2022/04/30 00:50:02;;;;;;;32.70;20.40;;;;;;;10.08;65.59;102132.28;4964053;28;20066;-67
2022/04/30 00:52:30;;;;;;;29.88;19.55;;;;;;;10.03;65.85;102132.25;4960783;28;20062;-67
2022/04/30 00:54:59;;;;;;;33.72;21.48;;;;;;;9.88;66.19;102128.66;4936737;29;20082;-67
2022/04/30 00:57:28;;;;;;;37.13;22.98;;;;;;;9.78;66.72;102136.94;4956016;28;20063;-67
2022/04/30 01:00:01;;;;;;;38.78;23.38;;;;;;;9.45;68.30;102129.16;4959482;28;20051;-66
2022/04/30 01:02:32;;;;;;;38.90;22.60;;;;;;;9.38;69.50;102132.16;4939760;29;20043;-67
2022/04/30 01:05:18;;;;;;;32.10;21.35;;;;;;;9.35;70.25;102129.94;4956888;28;20055;-67
2022/04/30 01:07:47;;;;;;;34.72;23.00;;;;;;;9.57;69.74;102135.25;4961463;28;20509;-67
2022/04/30 01:10:14;;;;;;;43.75;23.88;;;;;;;9.61;70.71;102131.66;4958903;28;20051;-68
2022/04/30 01:12:43;;;;;;;38.25;22.45;;;;;;;9.59;70.45;102127.53;4947847;29;20047;-67
2022/04/30 01:15:11;;;;;;;35.63;22.30;;;;;;;9.92;69.59;102121.53;4950330;29;20060;-66
2022/04/30 01:17:41;;;;;;;46.10;24.25;;;;;;;9.91;69.32;102122.59;4936567;29;20059;-67
2022/04/30 01:20:09;;;;;;;44.30;25.50;;;;;;;9.47;71.48;102124.19;4956418;29;20066;-67
2022/04/30 01:22:52;;;;;;;40.15;24.30;;;;;;;9.29;72.85;102130.22;4961883;28;20052;-67
2022/04/30 01:25:20;;;;;;;40.58;26.30;;;;;;;9.32;72.75;102113.16;4946003;28;20067;-67
2022/04/30 01:27:49;;;;;;;49.25;31.23;;;;;;;9.34;73.10;102116.47;4952904;28;20063;-67
2022/04/30 01:30:17;;;;;;;53.45;33.10;;;;;;;9.13;73.78;102113.66;4954831;28;20058;-67
2022/04/30 01:38:16;;;;;;;50.97;29.30;;;;;;;8.93;76.15;102105.34;4939291;29;20398;-68
2022/04/30 01:40:44;;;;;;;45.45;28.45;;;;;;;9.02;76.15;102105.66;4938938;29;20055;-69
2022/04/30 01:43:11;;;;;;;52.03;30.52;;;;;;;9.01;76.05;102102.06;4947203;29;20043;-67
2022/04/30 01:45:38;;;;;;;56.17;34.50;;;;;;;9.04;75.74;102103.47;4941340;29;20050;-67
2022/04/30 01:48:08;;;;;;;52.38;32.08;;;;;;;9.37;75.08;102102.19;4955154;29;20066;-67
2022/04/30 01:50:36;;;;;;;64.07;37.63;;;;;;;9.33;74.55;102099.16;4957417;29;20055;-69
2022/04/30 01:53:03;;;;;;;60.80;38.90;;;;;;;9.20;74.99;102104.34;4964635;28;20055;-67
2022/04/30 01:55:31;;;;;;;73.38;42.33;;;;;;;9.02;76.21;102101.00;4940419;29;20055;-66
2022/04/30 01:58:03;;;;;;;89.40;51.42;;;;;;;8.86;77.16;102103.94;4936375;29;20047;-68
2022/04/30 02:00:31;;;;;;;73.03;47.28;;;;;;;8.81;77.56;102098.41;4935102;29;20051;-67
2022/04/30 02:03:08;;;;;;;79.82;45.83;;;;;;;8.89;78.06;102097.94;4937318;29;20403;-66
2022/04/30 02:05:37;;;;;;;79.40;47.50;;;;;;;8.90;77.27;102092.16;4956574;29;20058;-66
2022/04/30 02:08:10;;;;;;;79.18;47.05;;;;;;;8.87;77.79;102100.91;4935920;29;20062;-67
2022/04/30 02:10:39;;;;;;;71.22;44.38;;;;;;;8.95;77.73;102094.09;4938625;29;20059;-66
2022/04/30 02:13:09;;;;;;;66.85;38.90;;;;;;;9.05;76.98;102092.19;4953247;28;20062;-69
2022/04/30 02:15:39;;;;;;;65.78;41.58;;;;;;;8.52;80.02;102088.94;4977326;28;20057;-67
2022/04/30 02:18:12;;;;;;;63.28;40.97;;;;;;;8.70;79.50;102083.81;4957837;28;20494;-67
2022/04/30 02:20:43;;;;;;;56.75;36.38;;;;;;;8.56;79.50;102093.63;4959229;28;20055;-66
2022/04/30 02:23:11;;;;;;;57.25;36.67;;;;;;;8.41;80.54;102093.56;4956114;29;20066;-66
2022/04/30 02:25:39;;;;;;;57.13;35.55;;;;;;;8.27;81.71;102094.28;4957590;29;20059;-66
2022/04/30 02:28:08;;;;;;;53.42;32.60;;;;;;;8.34;81.77;102087.47;4949853;29;20055;-67
2022/04/30 02:30:37;;;;;;;54.67;32.05;;;;;;;8.36;81.56;102090.78;4945705;28;20062;-67
2022/04/30 02:33:12;;;;;;;49.58;31.55;;;;;;;8.43;81.54;102083.13;4957145;29;20039;-67
2022/04/30 02:35:44;;;;;;;55.20;32.17;;;;;;;8.39;81.54;102094.91;4956639;28;20047;-66
2022/04/30 02:38:12;;;;;;;55.35;30.95;;;;;;;8.45;81.27;102099.34;4956605;29;20062;-68
2022/04/30 02:40:41;;;;;;;44.20;29.20;;;;;;;8.41;81.12;102098.19;4955082;29;20489;-67
2022/04/30 02:43:11;;;;;;;48.35;29.27;;;;;;;8.43;81.79;102083.13;4958386;28;20052;-67
2022/04/30 02:45:41;;;;;;;57.30;30.10;;;;;;;8.39;81.50;102087.50;4958366;28;20062;-67
2022/04/30 02:48:09;;;;;;;51.58;29.67;;;;;;;8.29;82.12;102084.69;4938699;29;20063;-67
2022/04/30 02:50:37;;;;;;;48.80;28.95;;;;;;;8.26;82.11;102087.13;4963686;28;20510;-68
2022/04/30 02:53:06;;;;;;;41.72;27.95;;;;;;;8.24;82.45;102084.66;4967334;28;20522;-68
2022/04/30 02:55:35;;;;;;;43.67;27.92;;;;;;;8.48;82.20;102088.66;4941125;29;20058;-68
2022/04/30 03:00:51;;;;;;;46.53;28.50;;;;;;;8.29;82.30;102084.69;4949526;28;20058;-66
2022/04/30 03:03:19;;;;;;;;;;;;;;;8.07;83.56;102085.88;4957062;29;20047;-66
2022/04/30 03:05:50;;;;;;;43.13;26.05;;;;;;;8.27;83.24;102083.28;4955762;28;20293;-67
2022/04/30 03:08:22;;;;;;;48.85;26.85;;;;;;;8.26;82.82;102082.50;4905953;29;20062;-67
2022/04/30 03:10:55;;;;;;;48.78;27.40;;;;;;;8.13;83.21;102082.91;4954375;29;20070;-69
2022/04/30 03:13:26;;;;;;;44.28;27.42;;;;;;;8.23;83.08;102085.72;4968783;28;20055;-67
2022/04/30 03:15:56;;;;;;;47.97;27.52;;;;;;;8.04;84.00;102075.44;4955998;28;20059;-68
2022/04/30 03:23:56;;;;;;;42.13;27.30;;;;;;;7.95;84.97;102080.56;4934768;28;20058;-67
2022/04/30 03:26:26;;;;;;;46.10;28.15;;;;;;;8.15;85.00;102077.97;4929143;29;20059;-67
2022/04/30 03:28:55;;;;;;;47.45;26.00;;;;;;;8.15;83.99;102077.97;4939183;29;20536;-67
2022/04/30 03:31:22;;;;;;;42.42;25.10;;;;;;;8.19;83.77;102076.38;4928555;29;20479;-68
2022/04/30 03:33:50;;;;;;;44.58;26.65;;;;;;;8.34;83.82;102073.75;4920085;29;20052;-67
2022/04/30 03:36:18;;;;;;;46.78;28.02;;;;;;;8.59;82.53;102082.13;4941527;29;20095;-65
2022/04/30 03:38:47;;;;;;;40.33;25.30;;;;;;;8.54;82.23;102073.03;4932871;29;20062;-67
2022/04/30 03:41:17;;;;;;;45.53;26.73;;;;;;;8.34;82.52;102073.75;4934019;29;20058;-66
2022/04/30 03:43:45;;;;;;;42.45;26.90;;;;;;;8.27;83.44;102070.41;4919645;29;20494;-68
2022/04/30 03:46:12;;;;;;;41.75;26.17;;;;;;;8.26;83.48;102067.94;4939037;29;20056;-67
2022/04/30 03:48:39;;;;;;;43.90;26.38;;;;;;;8.34;83.23;102073.75;4943734;29;20051;-67
2022/04/30 03:51:07;;;;;;;46.00;25.83;;;;;;;8.58;82.33;102069.47;4935466;29;20058;-67
2022/04/30 03:53:34;;;;;;;46.75;25.75;;;;;;;8.41;82.10;102070.75;4917345;29;20048;-67
2022/04/30 03:56:02;;;;;;;41.53;25.05;;;;;;;8.61;81.88;102068.13;4943966;29;20047;-66
2022/04/30 03:58:30;;;;;;;49.13;25.45;;;;;;;8.47;82.01;102069.69;4919847;29;20062;-66
2022/04/30 04:00:57;;;;;;;38.45;25.42;;;;;;;8.30;82.25;102069.06;4920365;29;20048;-67
2022/04/30 04:03:24;;;;;;;45.65;25.42;;;;;;;8.18;83.51;102077.44;4936395;29;20056;-67
2022/04/30 04:05:51;;;;;;;48.75;26.70;;;;;;;8.25;82.97;102066.25;4933711;29;20047;-67
2022/04/30 04:08:20;;;;;;;42.55;27.27;;;;;;;8.08;83.82;102071.06;4941317;29;20062;-66
2022/04/30 04:10:48;;;;;;;42.20;25.13;;;;;;;8.12;84.05;102064.78;4915880;29;20059;-66
2022/04/30 04:18:51;;;;;;;47.67;27.77;;;;;;;8.05;83.94;102064.19;4935600;29;20071;-67
2022/04/30 04:21:19;;;;;;;45.17;27.65;;;;;;;8.03;84.44;102071.88;4935389;29;20511;-67
2022/04/30 04:26:33;;;;;;;40.03;25.85;;;;;;;7.94;84.97;102077.00;4952339;28;20529;-66
2022/04/30 04:29:00;;;;;;;45.90;26.40;;;;;;;8.05;84.64;102077.91;4954355;29;20059;-67
2022/04/30 04:31:28;;;;;;;44.90;26.55;;;;;;;7.96;84.52;102074.84;4950930;29;20055;-67
2022/04/30 04:33:55;;;;;;;44.40;25.48;;;;;;;7.95;85.14;102075.06;4958692;28;20049;-67
2022/04/30 04:36:23;;;;;;;41.17;26.75;;;;;;;8.19;84.86;102072.78;4956445;29;20051;-66
2022/04/30 04:38:50;;;;;;;48.70;26.50;;;;;;;8.27;83.55;102072.31;4959659;29;20626;-67
2022/04/30 04:41:18;;;;;;;42.05;25.65;;;;;;;8.29;83.33;102076.47;4940180;29;20523;-67
2022/04/30 04:43:45;;;;;;;46.03;27.80;;;;;;;8.06;83.99;102078.72;4938242;29;20054;-66
2022/04/30 04:46:13;;;;;;;47.53;26.33;;;;;;;8.08;84.31;102085.63;4954730;29;20047;-67
2022/04/30 04:48:40;;;;;;;43.65;27.25;;;;;;;8.13;84.43;102087.56;4957797;29;20401;-68
2022/04/30 04:51:08;;;;;;;41.20;25.42;;;;;;;7.98;84.63;102082.81;4952831;29;20055;-67
2022/04/30 04:53:35;;;;;;;47.03;27.60;;;;;;;8.15;84.41;102099.94;4934921;29;20040;-67
2022/04/30 04:56:04;;;;;;;42.03;26.80;;;;;;;8.05;84.68;102099.88;4950491;29;20051;-68
2022/04/30 04:58:31;;;;;;;50.05;26.30;;;;;;;8.17;84.57;102100.50;4949724;29;20066;-66
2022/04/30 05:00:58;;;;;;;47.97;26.30;;;;;;;8.03;84.78;102104.78;4948604;28;20066;-67
2022/04/30 05:03:26;;;;;;;47.40;26.40;;;;;;;8.23;84.17;102101.38;4950874;29;20237;-67
2022/04/30 05:05:53;;;;;;;51.85;27.35;;;;;;;8.32;83.74;102103.38;4949159;29;20055;-66
2022/04/30 05:08:20;;;;;;;42.83;25.90;;;;;;;8.12;83.58;102108.69;4954062;28;20047;-66
2022/04/30 05:10:48;;;;;;;46.78;26.98;;;;;;;8.06;84.14;102097.94;4948517;28;20405;-66
2022/04/30 05:13:15;;;;;;;41.80;26.85;;;;;;;8.13;84.60;102107.59;4949112;29;20047;-67
2022/04/30 05:15:43;;;;;;;45.53;26.88;;;;;;;8.24;83.67;102103.88;4950487;29;20043;-67
2022/04/30 05:18:10;;;;;;;48.38;27.00;;;;;;;8.22;83.84;102111.50;4933781;29;20054;-67
2022/04/30 05:20:38;;;;;;;43.95;26.63;;;;;;;8.17;84.03;102108.75;4949207;28;20062;-67
2022/04/30 05:23:10;;;;;;;41.85;26.95;;;;;;;8.36;83.65;102109.16;4950397;29;20059;-67
2022/04/30 05:25:40;;;;;;;41.53;27.05;;;;;;;8.49;82.98;102116.94;4950076;29;20058;-67
2022/04/30 05:28:09;;;;;;;38.20;26.55;;;;;;;8.27;83.24;102113.47;4945678;28;20043;-67
2022/04/30 05:30:37;;;;;;;43.22;26.77;;;;;;;8.26;83.29;102112.69;4948866;29;20062;-67
2022/04/30 05:33:04;;;;;;;49.63;26.58;;;;;;;8.25;83.46;102121.16;4948708;29;20059;-67
2022/04/30 05:35:32;;;;;;;51.72;28.10;;;;;;;8.40;83.69;102127.59;4950265;29;20050;-68
2022/04/30 05:37:59;;;;;;;47.55;26.50;;;;;;;8.88;81.68;102127.31;4950621;29;20043;-67
2022/04/30 05:40:27;;;;;;;46.88;26.63;;;;;;;8.53;81.93;102124.38;4950245;29;20059;-67
2022/04/30 05:42:54;;;;;;;51.40;28.27;;;;;;;8.18;84.10;102126.00;4917991;29;20510;-67
2022/04/30 05:45:21;;;;;;;42.35;26.92;;;;;;;8.42;84.04;102124.59;4951741;28;20062;-67
2022/04/30 05:47:49;;;;;;;42.25;26.33;;;;;;;8.53;83.21;102131.78;4958330;29;20058;-67
2022/04/30 05:50:16;;;;;;;43.17;27.83;;;;;;;8.80;82.11;102136.03;4955137;29;20050;-67
2022/04/30 05:52:44;;;;;;;48.28;27.17;;;;;;;9.14;80.83;102130.97;4953871;29;20147;-67
2022/04/30 05:55:11;;;;;;;45.35;28.30;;;;;;;9.41;79.54;102128.88;4952430;29;20042;-67
2022/04/30 05:57:39;;;;;;;42.40;27.95;;;;;;;9.47;78.46;102130.53;4957591;29;20047;-67
2022/04/30 06:00:07;;;;;;;41.70;27.95;;;;;;;9.39;78.87;102133.00;4940599;29;20059;-67
2022/04/30 06:02:35;;;;;;;43.80;28.35;;;;;;;9.38;78.42;102134.09;4952884;29;20124;-66
2022/04/30 06:05:03;;;;;;;42.65;26.85;;;;;;;9.38;78.65;102142.34;4950544;28;20047;-67
2022/04/30 06:07:30;;;;;;;41.35;26.92;;;;;;;9.66;77.64;102141.88;4945778;29;20055;-67
2022/04/30 06:09:58;;;;;;;48.33;28.17;;;;;;;9.67;77.03;102143.50;4956593;28;20058;-67
2022/04/30 06:12:25;;;;;;;40.83;27.35;;;;;;;9.57;77.46;102141.53;4956731;28;20055;-68
2022/04/30 06:14:52;;;;;;;46.72;28.60;;;;;;;9.59;76.94;102144.84;4957514;29;20047;-67
2022/04/30 06:17:20;;;;;;;44.22;27.52;;;;;;;9.51;77.49;102147.31;4952717;29;20043;-69
2022/04/30 06:19:48;;;;;;;44.78;28.35;;;;;;;9.80;76.24;102159.47;4953612;29;20062;-68
2022/04/30 06:22:15;;;;;;;40.70;27.98;;;;;;;9.59;75.98;102149.56;4956077;29;20059;-67
2022/04/30 06:24:43;;;;;;;39.20;27.65;;;;;;;9.57;76.02;102152.53;4937864;29;20055;-67
2022/04/30 06:27:11;;;;;;;40.17;27.83;;;;;;;9.47;76.56;102155.28;4955617;29;20128;-67
2022/04/30 06:29:38;;;;;;;40.47;27.23;;;;;;;9.80;76.03;102151.22;4957038;28;20047;-67
2022/04/30 06:32:06;;;;;;;38.25;26.63;;;;;;;9.58;75.91;102165.22;4954202;28;20710;-66
2022/04/30 06:34:34;;;;;;;36.30;26.02;;;;;;;9.92;74.88;102154.56;4936608;29;20043;-66
2022/04/30 06:37:01;;;;;;;40.80;26.35;;;;;;;9.76;74.35;102161.13;4949781;28;20047;-67
2022/04/30 06:39:29;;;;;;;43.97;27.55;;;;;;;9.59;75.26;102158.59;4938082;29;20419;-68
2022/04/30 06:41:56;;;;;;;42.47;26.75;;;;;;;9.51;75.53;102170.16;4922051;29;20055;-67
2022/04/30 06:44:24;;;;;;;41.45;26.63;;;;;;;9.73;74.83;102161.66;4955675;28;20043;-68
2022/04/30 06:46:51;;;;;;;40.17;25.98;;;;;;;9.69;74.95;102158.63;4956320;28;20055;-67
2022/04/30 06:49:18;;;;;;;42.42;25.88;;;;;;;10.08;73.98;102173.56;4955441;28;20047;-67
2022/04/30 06:51:47;;;;;;;41.35;26.13;;;;;;;9.98;73.03;102165.28;4951168;28;20062;-67
2022/04/30 06:57:08;;;;;;;36.78;25.55;;;;;;;10.07;72.44;102158.13;4953063;28;20058;-67
2022/04/30 06:59:40;;;;;;;42.22;25.15;;;;;;;9.89;72.79;102172.44;4953432;28;20066;-66
2022/04/30 07:02:13;;;;;;;40.15;25.33;;;;;;;10.04;72.77;102177.94;4953096;28;20055;-66
2022/04/30 07:04:41;;;;;;;40.55;25.35;;;;;;;9.81;72.92;102172.97;4954404;29;20595;-67
2022/04/30 07:07:10;;;;;;;36.90;25.27;;;;;;;9.76;73.26;102174.88;4938293;28;20039;-66
2022/04/30 07:09:38;;;;;;;38.08;24.45;;;;;;;9.88;72.60;102178.22;4942313;28;20059;-67
2022/04/30 07:12:07;;;;;;;37.63;24.48;;;;;;;10.12;71.95;102177.44;4954818;28;20374;-67
2022/04/30 07:14:36;;;;;;;39.90;25.75;;;;;;;10.24;70.94;102185.41;4955715;28;20055;-66
2022/04/30 07:17:04;;;;;;;34.38;23.52;;;;;;;10.37;70.67;102184.03;4939428;29;20066;-66
2022/04/30 07:19:32;;;;;;;34.47;23.30;;;;;;;10.40;70.58;102178.81;4947402;28;20047;-68
2022/04/30 07:22:00;;;;;;;35.05;23.08;;;;;;;10.46;70.01;102182.38;4957153;28;20055;-68
2022/04/30 07:24:27;;;;;;;33.97;23.98;;;;;;;10.77;68.74;102184.81;4951256;28;20062;-66
2022/04/30 07:26:55;;;;;;;31.23;22.55;;;;;;;11.09;68.88;102187.19;4931680;28;20077;-66
2022/04/30 07:29:24;;;;;;;34.60;23.40;;;;;;;11.10;68.44;102186.09;4932021;28;20698;-67
2022/04/30 07:31:52;;;;;;;31.40;20.80;;;;;;;11.07;68.02;102190.22;4946213;28;20047;-65
2022/04/30 07:34:19;;;;;;;34.30;22.17;;;;;;;10.75;68.53;102189.78;4947327;28;20046;-65
2022/04/30 07:36:47;;;;;;;32.28;23.35;;;;;;;10.59;68.55;102190.91;4956175;28;20061;-69
2022/04/30 07:39:14;;;;;;;30.80;21.75;;;;;;;10.71;67.77;102187.84;4945884;28;20051;-66
2022/04/30 07:41:41;;;;;;;29.55;19.77;;;;;;;11.09;67.63;102196.28;4927974;28;20059;-67
2022/04/30 07:44:10;;;;;;;34.03;21.48;;;;;;;11.29;65.96;102198.16;4952146;28;20047;-67
2022/04/30 07:46:37;;;;;;;28.00;21.13;;;;;;;11.46;65.74;102195.03;4951950;28;20051;-67
2022/04/30 07:49:05;;;;;;;28.80;21.05;;;;;;;11.57;65.74;102186.44;4951737;28;20051;-68
2022/04/30 07:51:42;;;;;;;32.80;20.63;;;;;;;11.76;64.58;102187.47;4953685;28;20569;-67
2022/04/30 07:54:09;;;;;;;40.10;19.23;;;;;;;11.87;64.81;102190.97;4955674;29;20048;-67
2022/04/30 07:56:37;;;;;;;29.65;21.98;;;;;;;11.48;63.26;102190.06;4952815;29;20050;-71
2022/04/30 07:59:04;;;;;;;28.60;19.70;;;;;;;11.45;64.25;102191.47;4935563;28;20055;-71
2022/04/30 08:01:32;;;;;;;30.92;20.50;;;;;;;11.89;63.55;102189.56;4944776;29;20534;-70
2022/04/30 08:03:59;;;;;;;34.85;21.10;;;;;;;11.77;62.61;102188.28;4949134;29;20051;-68
2022/04/30 08:06:27;;;;;;;29.50;20.00;;;;;;;11.63;62.92;102198.28;4949147;28;20048;-70
2022/04/30 08:08:54;;;;;;;32.15;21.15;;;;;;;12.06;62.68;102187.25;4935841;29;20064;-68
2022/04/30 08:11:22;;;;;;;28.88;21.02;;;;;;;12.39;62.44;102196.66;4953734;29;20043;-72
2022/04/30 08:13:49;;;;;;;29.83;20.40;;;;;;;12.03;61.69;102193.34;4953257;29;20402;-70
2022/04/30 08:16:17;;;;;;;27.30;20.00;;;;;;;12.06;61.73;102191.94;4955060;29;20046;-71
2022/04/30 08:18:45;;;;;;;27.77;20.70;;;;;;;11.64;62.93;102205.44;4936273;29;20437;-69
2022/04/30 08:21:13;;;;;;;29.65;20.30;;;;;;;11.62;62.65;102199.38;4952895;28;20039;-71
2022/04/30 08:23:40;;;;;;;29.30;19.20;;;;;;;11.69;62.91;102191.63;4955980;28;20144;-71
2022/04/30 08:26:07;;;;;;;28.45;20.02;;;;;;;11.38;63.37;102196.47;4957862;29;20047;-68
2022/04/30 08:28:35;;;;;;;26.50;20.00;;;;;;;11.42;62.88;102193.97;4955950;28;20058;-67
2022/04/30 08:31:02;;;;;;;29.15;19.60;;;;;;;11.81;62.55;102186.59;4949785;28;20063;-67
2022/04/30 08:33:30;;;;;;;27.55;19.05;;;;;;;11.81;61.48;102181.91;4935373;29;20062;-66
2022/04/30 08:35:57;;;;;;;27.48;18.75;;;;;;;11.67;61.81;102188.31;4956123;28;20047;-65
2022/04/30 08:38:24;;;;;;;27.52;18.13;;;;;;;11.86;61.72;102183.78;4956946;28;20066;-69
2022/04/30 08:40:51;;;;;;;30.83;18.90;;;;;;;11.61;61.75;102181.16;4953605;28;20054;-67
2022/04/30 08:43:20;;;;;;;30.67;19.55;;;;;;;11.99;61.41;102174.88;4957083;28;20043;-66
2022/04/30 08:45:47;;;;;;;28.05;19.45;;;;;;;12.13;60.90;102190.50;4958605;28;20040;-68
2022/04/30 08:48:16;;;;;;;33.42;19.85;;;;;;;11.38;62.49;102188.19;4958043;28;20055;-69
2022/04/30 08:50:45;;;;;;;30.33;19.70;;;;;;;11.64;62.93;102170.41;4940494;29;20051;-66
2022/04/30 08:53:14;;;;;;;29.55;20.10;;;;;;;11.84;62.49;102177.72;4937783;29;20046;-66
2022/04/30 08:55:41;;;;;;;32.33;20.45;;;;;;;11.99;61.63;102169.34;4939976;28;20074;-68
2022/04/30 08:58:09;;;;;;;26.45;19.55;;;;;;;12.17;60.41;102171.41;4955550;28;20047;-67
2022/04/30 09:00:41;;;;;;;28.75;18.63;;;;;;;11.95;60.12;102168.25;4952206;28;20059;-66
2022/04/30 09:03:13;;;;;;;32.58;18.20;;;;;;;12.19;61.23;102170.00;4953457;28;20051;-68
2022/04/30 09:05:40;;;;;;;26.48;17.48;;;;;;;11.95;60.29;102163.56;4940679;29;20058;-70
2022/04/30 09:08:08;;;;;;;27.42;17.83;;;;;;;12.52;59.01;102164.75;4958875;28;20054;-68
2022/04/30 09:10:37;;;;;;;27.15;18.40;;;;;;;12.39;58.17;102157.97;4954165;28;20066;-70
2022/04/30 09:13:10;;;;;;;30.63;19.17;;;;;;;12.17;58.44;102169.47;4968042;28;20062;-70
2022/04/30 09:15:39;;;;;;;26.35;17.98;;;;;;;12.22;59.12;102174.94;4955443;28;20051;-70
2022/04/30 09:18:08;;;;;;;28.25;18.10;;;;;;;12.04;58.72;102166.56;4953918;28;20039;-70
2022/04/30 09:20:49;;;;;;;25.52;17.25;;;;;;;11.91;58.21;102169.94;4956110;28;20062;-71
2022/04/30 09:23:29;;;;;;;26.73;16.67;;;;;;;12.18;58.24;102162.03;4950173;28;20056;-70
2022/04/30 09:25:57;;;;;;;26.15;18.00;;;;;;;11.86;58.71;102159.78;4939122;29;20059;-70
2022/04/30 09:28:33;;;;;;;27.27;17.63;;;;;;;11.92;59.00;102153.13;4956915;29;20367;-71
2022/04/30 09:31:07;;;;;;;27.60;17.48;;;;;;;12.18;58.86;102151.81;4953937;28;20154;-67
2022/04/30 09:33:50;;;;;;;28.33;17.00;;;;;;;11.91;59.69;102147.84;4950497;28;20047;-69
2022/04/30 09:39:15;;;;;;;24.10;17.02;;;;;;;12.39;57.90;102157.97;4931648;28;20375;-70
2022/04/30 09:41:43;;;;;;;30.08;17.08;;;;;;;12.45;56.48;102151.25;4954650;28;20082;-70
2022/04/30 09:44:12;;;;;;;25.50;17.08;;;;;;;12.38;57.04;102151.59;4964969;28;20502;-69
2022/04/30 09:46:40;;;;;;;20.70;15.50;;;;;;;12.32;57.16;102149.19;4936921;29;20055;-70
2022/04/30 09:54:42;;;;;;;26.38;12.35;;;;;;;12.40;53.11;102160.44;4957416;29;20064;-69
2022/04/30 09:57:14;;;;;;;20.13;10.82;;;;;;;12.45;51.83;102142.97;4956846;28;20490;-71
2022/04/30 09:59:42;;;;;;;18.45;10.50;;;;;;;12.71;51.73;102149.88;4940370;29;20039;-72
2022/04/30 10:02:11;;;;;;;19.98;10.70;;;;;;;12.78;50.96;102144.84;4953588;28;20157;-69
2022/04/30 10:04:38;;;;;;;18.17;11.32;;;;;;;12.67;51.48;102143.31;4940034;29;20058;-69
2022/04/30 10:07:07;;;;;;;17.15;11.02;;;;;;;12.69;51.46;102140.25;4953219;28;20043;-69
2022/04/30 10:09:42;;;;;;;16.08;11.40;;;;;;;12.76;49.79;102149.81;4941323;29;22309;-71
2022/04/30 10:12:26;;;;;;;13.63;9.45;;;;;;;12.77;49.99;102140.44;4939147;29;20055;-69
2022/04/30 10:15:06;;;;;;;17.05;11.25;;;;;;;12.80;50.28;102134.31;4955580;28;20058;-69
2022/04/30 10:17:35;;;;;;;19.55;11.20;;;;;;;12.75;50.98;102141.81;4949641;29;20052;-69
2022/04/30 10:20:07;;;;;;;20.33;10.95;;;;;;;13.11;50.83;102132.84;4938403;28;20062;-70
2022/04/30 10:22:35;;;;;;;18.30;9.40;;;;;;;13.45;48.70;102129.91;4938494;29;20877;-71
2022/04/30 10:25:03;;;;;;;12.93;8.95;;;;;;;13.64;47.66;102125.19;4961176;28;20054;-72
2022/04/30 10:27:39;;;;;;;17.48;8.80;;;;;;;13.60;46.70;102113.06;4931431;29;20047;-71
2022/04/30 10:30:17;;;;;;;13.27;8.07;;;;;;;13.76;45.42;102122.81;4921151;28;20063;-74
2022/04/30 10:33:00;;;;;;;11.68;8.18;;;;;;;13.39;45.83;102118.09;4933655;28;20047;-76
2022/04/30 10:35:37;;;;;;;14.15;8.18;;;;;;;13.21;46.09;102126.38;4935349;29;20059;-70
2022/04/30 10:38:11;;;;;;;13.55;8.10;;;;;;;13.31;45.87;102124.31;4949421;28;20418;-73
2022/04/30 10:40:58;;;;;;;16.90;8.93;;;;;;;13.55;45.46;102110.38;4960619;28;20070;-71
2022/04/30 10:43:42;;;;;;;13.77;7.43;;;;;;;13.62;44.48;102112.75;4922209;29;20435;-71
2022/04/30 10:46:13;;;;;;;12.60;7.43;;;;;;;13.41;44.16;102115.84;4948366;28;20051;-71
2022/04/30 10:48:40;;;;;;;11.27;7.32;;;;;;;13.51;44.60;102114.91;4953303;28;20059;-72
2022/04/30 10:51:16;;;;;;;17.67;8.32;;;;;;;13.61;44.31;102114.75;4942011;29;20066;-72
2022/04/30 10:53:45;;;;;;;12.90;8.40;;;;;;;13.36;44.93;102110.38;4951215;28;20051;-71
2022/04/30 10:56:14;;;;;;;13.95;7.93;;;;;;;13.34;45.31;102101.56;4947727;29;20046;-72
2022/04/30 10:58:44;;;;;;;12.50;8.15;;;;;;;13.32;45.68;102094.66;4938262;29;20419;-69
2022/04/30 11:01:13;;;;;;;14.85;8.20;;;;;;;13.41;44.54;102096.47;4942158;29;20053;-72
2022/04/30 11:03:42;;;;;;;13.45;8.00;;;;;;;13.39;45.25;102095.13;4948550;28;20421;-71
2022/04/30 11:06:19;;;;;;;14.82;8.40;;;;;;;13.63;45.15;102097.81;4954435;28;20055;-71
2022/04/30 11:09:01;;;;;;;15.00;8.85;;;;;;;13.71;45.40;102102.66;4939481;29;20062;-72
2022/04/30 11:11:29;;;;;;;15.02;8.38;;;;;;;13.75;45.83;102095.41;4937588;29;20491;-72
2022/04/30 11:13:56;;;;;;;12.90;7.90;;;;;;;13.80;45.35;102093.38;4953561;28;20502;-72
2022/04/30 11:16:37;;;;;;;13.07;7.70;;;;;;;14.03;43.99;102081.38;4949770;28;20055;-68
2022/04/30 11:19:09;;;;;;;11.73;7.40;;;;;;;14.01;44.15;102085.56;4935304;29;20047;-71
2022/04/30 11:21:38;;;;;;;16.33;8.65;;;;;;;13.62;44.00;102076.78;4954084;28;20051;-70
2022/04/30 11:24:07;;;;;;;12.60;8.13;;;;;;;13.71;44.42;102073.03;4956344;29;20063;-70
2022/04/30 11:26:38;;;;;;;14.63;8.55;;;;;;;13.81;44.67;102078.41;4951458;28;20719;-70
2022/04/30 11:29:09;;;;;;;17.98;9.68;;;;;;;13.98;44.55;102059.28;4950275;28;20059;-69
2022/04/30 11:31:37;;;;;;;18.85;8.52;;;;;;;13.97;44.66;102068.72;4938093;28;20417;-70
2022/04/30 11:34:11;;;;;;;14.75;7.47;;;;;;;13.91;43.46;102064.41;4953533;28;20061;-71
2022/04/30 11:36:44;;;;;;;14.00;7.75;;;;;;;14.14;43.49;102068.16;4965690;28;20057;-70
2022/04/30 11:39:12;;;;;;;11.82;6.78;;;;;;;14.22;42.89;102059.97;4961954;28;20079;-70
2022/04/30 11:41:45;;;;;;;11.55;6.30;;;;;;;13.96;42.88;102071.78;4973916;28;20050;-68
2022/04/30 11:44:14;;;;;;;12.52;5.93;;;;;;;13.95;42.64;102064.59;4972852;28;20054;-74
2022/04/30 11:46:43;;;;;;;10.45;5.22;;;;;;;14.30;42.76;102064.00;4940360;29;20051;-70
2022/04/30 11:49:13;;;;;;;12.30;5.70;;;;;;;14.53;42.65;102043.59;4949081;28;20058;-69
2022/04/30 11:52:00;;;;;;;8.68;4.80;;;;;;;14.58;40.85;102054.56;4941909;29;20050;-68
2022/04/30 11:54:28;;;;;;;7.90;4.07;;;;;;;14.15;39.47;102042.91;4950801;28;20823;-70
2022/04/30 11:57:02;;;;;;;10.60;4.22;;;;;;;14.59;39.68;102042.38;4951053;28;20053;-73